KACP

Allen Parish Airport

Oakdale, Louisiana, USA
METAR KACP 200655Z AUTO 14003KT 10SM SCT010 SCT039 20/19 A3006 RMK AO2 T02030190
Observed Flight Rules
Feb-20 @ 06:55 UTC (28 minutes ago) Visual Flight Rules
Wind Visibility Clouds
140° at 3 knots 10 miles
  • Scattered at 1,000' AGL
  • Scattered at 3,900' AGL
Temperatures Readings
Current 20°C / 68°F
Dewpoint 19°C / 66°F
Humidity 94%
Altimeter 30.06" Hg
Pressure 1018 hPa
Elevation 33
METAR KACP 200655Z AUTO 14003KT 10SM SCT010 SCT039 20/19 A3006 RMK AO2 T02030190
Observed Flight Rules
Feb-20 @ 06:55 UTC
(28 minutes ago)
VFR
Wind Visibility
140° at 3 knots 10 miles
Clouds
  • Scattered at 1,000' AGL
  • Scattered at 3,900' AGL
Temperature Dewpoint
20°C / 68°F 19°C / 66°F
Humidity Altimeter Pressure
94% 30.06" Hg 1018 hPa